createdAt,value
2018-06-10T00:00:20.904Z,3.57
2018-06-10T00:02:49.810Z,3.80
2018-06-10T00:05:18.787Z,3.80
2018-06-10T00:07:47.668Z,4.10
2018-06-10T00:10:16.660Z,3.80
2018-06-10T00:12:45.526Z,3.60
2018-06-10T00:15:14.419Z,3.60
2018-06-10T00:17:43.312Z,3.50
2018-06-10T00:20:12.145Z,3.80
2018-06-10T00:22:41.084Z,3.97
2018-06-10T00:25:09.960Z,4.17
2018-06-10T00:27:38.836Z,5.80
2018-06-10T00:30:07.714Z,3.73
2018-06-10T00:32:37.401Z,3.93
2018-06-10T00:35:06.376Z,4.00
2018-06-10T00:37:35.272Z,3.83
2018-06-10T00:40:04.224Z,3.83
2018-06-10T00:42:33.098Z,4.30
2018-06-10T00:45:01.952Z,4.13
2018-06-10T00:47:30.936Z,3.77
2018-06-10T00:49:59.828Z,4.00
2018-06-10T00:52:28.696Z,3.67
2018-06-10T00:54:57.612Z,3.70
2018-06-10T00:57:26.467Z,3.53
2018-06-10T00:59:55.372Z,3.73
2018-06-10T01:02:24.271Z,4.13
2018-06-10T01:04:53.114Z,3.87
2018-06-10T01:07:22.107Z,4.30
2018-06-10T01:09:50.964Z,4.07
2018-06-10T01:12:19.900Z,4.17
2018-06-10T01:14:48.744Z,4.70
2018-06-10T01:17:17.659Z,4.07
2018-06-10T01:19:46.545Z,4.30
2018-06-10T01:22:15.395Z,4.30
2018-06-10T01:24:44.331Z,3.87
2018-06-10T01:27:13.684Z,3.37
2018-06-10T01:29:42.576Z,3.97
2018-06-10T01:32:11.420Z,4.00
2018-06-10T01:34:40.300Z,4.00
2018-06-10T01:37:09.156Z,4.27
2018-06-10T01:39:38.127Z,4.10
2018-06-10T01:42:07.007Z,4.17
2018-06-10T01:44:35.938Z,4.07
2018-06-10T01:47:04.884Z,4.00
2018-06-10T01:49:33.360Z,4.30
2018-06-10T01:52:02.237Z,4.47
2018-06-10T01:54:31.125Z,4.87
2018-06-10T01:56:59.988Z,4.57
2018-06-10T01:59:28.841Z,4.00
2018-06-10T02:01:57.759Z,4.10
2018-06-10T02:04:26.645Z,4.40
2018-06-10T02:06:55.480Z,3.97
2018-06-10T02:09:24.368Z,3.93
2018-06-10T02:11:52.863Z,4.17
2018-06-10T02:14:21.748Z,4.17
2018-06-10T02:16:50.584Z,3.87
2018-06-10T02:19:19.468Z,4.00
2018-06-10T02:21:48.388Z,4.40
2018-06-10T02:24:17.292Z,4.20
2018-06-10T02:26:46.185Z,4.30
2018-06-10T02:29:14.604Z,4.40
2018-06-10T02:31:43.501Z,4.57
2018-06-10T02:34:12.398Z,4.03
2018-06-10T02:36:41.247Z,4.33
2018-06-10T02:39:10.168Z,4.30
2018-06-10T02:41:39.020Z,4.50
2018-06-10T02:44:07.904Z,4.67
2018-06-10T02:46:36.798Z,4.53
2018-06-10T02:49:05.728Z,3.80
2018-06-10T02:51:34.607Z,4.03
2018-06-10T02:54:03.448Z,4.37
2018-06-10T02:56:31.903Z,4.03
2018-06-10T02:59:00.812Z,4.30
2018-06-10T03:01:29.240Z,3.97
2018-06-10T03:03:58.080Z,3.47
2018-06-10T03:06:26.556Z,3.70
2018-06-10T03:08:55.394Z,3.90
2018-06-10T03:11:24.284Z,3.90
2018-06-10T03:13:53.127Z,4.60
2018-06-10T03:16:21.997Z,4.53
2018-06-10T03:18:50.899Z,4.77
2018-06-10T03:21:19.599Z,4.73
2018-06-10T03:23:48.468Z,4.60
2018-06-10T03:26:17.346Z,5.00
2018-06-10T03:28:46.184Z,4.50
2018-06-10T03:31:15.072Z,4.70
2018-06-10T03:33:43.896Z,4.50
2018-06-10T03:36:12.772Z,4.10
2018-06-10T03:38:41.676Z,4.00
2018-06-10T03:41:10.538Z,4.50
2018-06-10T03:43:39.403Z,4.27
2018-06-10T03:46:08.296Z,4.20
2018-06-10T03:48:37.184Z,4.37
2018-06-10T03:51:06.135Z,4.40
2018-06-10T03:53:35.032Z,4.50
2018-06-10T03:56:03.874Z,5.23
2018-06-10T03:58:32.711Z,4.43
2018-06-10T04:01:01.184Z,4.20
2018-06-10T04:03:29.648Z,4.40
2018-06-10T04:05:58.525Z,3.97
2018-06-10T04:08:27.360Z,4.43
2018-06-10T04:10:56.272Z,4.13
2018-06-10T04:13:25.100Z,4.27
2018-06-10T04:15:54.006Z,4.00
2018-06-10T04:18:22.471Z,4.27
2018-06-10T04:20:51.328Z,4.13
2018-06-10T04:23:20.305Z,3.87
2018-06-10T04:25:49.157Z,4.50
2018-06-10T04:28:18.036Z,4.60
2018-06-10T04:30:46.996Z,3.87
2018-06-10T04:33:15.901Z,4.20
2018-06-10T04:35:44.740Z,4.00
2018-06-10T04:38:13.613Z,4.00
2018-06-10T04:40:42.516Z,4.00
2018-06-10T04:43:11.349Z,4.23
2018-06-10T04:45:40.223Z,3.70
2018-06-10T04:48:09.050Z,4.30
2018-06-10T04:50:37.940Z,4.63
2018-06-10T04:53:06.824Z,4.57
2018-06-10T04:55:35.684Z,3.93
2018-06-10T04:58:04.572Z,4.47
2018-06-10T05:00:33.460Z,4.03
2018-06-10T05:03:02.323Z,4.30
2018-06-10T05:05:31.255Z,4.20
2018-06-10T05:08:00.076Z,4.03
2018-06-10T05:10:28.980Z,4.10
2018-06-10T05:12:58.227Z,4.33
2018-06-10T05:15:27.100Z,4.63
2018-06-10T05:17:55.994Z,4.63
2018-06-10T05:20:24.896Z,4.70
2018-06-10T05:22:53.772Z,4.20
2018-06-10T05:25:22.634Z,4.60
2018-06-10T05:27:51.475Z,4.60
2018-06-10T05:30:19.935Z,4.60
2018-06-10T05:32:48.835Z,4.07
2018-06-10T05:35:17.674Z,4.27
2018-06-10T05:37:46.552Z,3.70
2018-06-10T05:40:15.450Z,3.87
2018-06-10T05:42:44.343Z,4.30
2018-06-10T05:45:13.256Z,4.00
2018-06-10T05:47:42.136Z,4.17
2018-06-10T05:50:10.964Z,4.20
2018-06-10T05:52:39.837Z,3.77
2018-06-10T05:55:08.708Z,4.50
2018-06-10T05:57:37.544Z,3.87
2018-06-10T06:00:06.638Z,4.00
2018-06-10T06:02:35.516Z,4.43
2018-06-10T06:05:04.384Z,4.60
2018-06-10T06:07:33.299Z,4.63
2018-06-10T06:10:02.193Z,4.30
2018-06-10T06:12:31.112Z,4.63
2018-06-10T06:14:59.968Z,4.23
2018-06-10T06:17:28.824Z,4.50
2018-06-10T06:19:57.696Z,4.30
2018-06-10T06:22:26.580Z,4.10
2018-06-10T06:24:55.427Z,5.10
2018-06-10T06:27:24.511Z,4.20
2018-06-10T06:29:53.332Z,4.40
2018-06-10T06:32:22.220Z,4.97
2018-06-10T06:34:51.099Z,4.13
2018-06-10T06:37:19.989Z,4.40
2018-06-10T06:39:48.945Z,4.70
2018-06-10T06:42:17.776Z,4.40
2018-06-10T06:44:46.664Z,4.60
2018-06-10T06:47:15.804Z,4.40
2018-06-10T06:49:44.737Z,4.10
2018-06-10T06:52:13.674Z,4.50
2018-06-10T06:54:42.600Z,4.10
2018-06-10T06:57:11.500Z,4.07
2018-06-10T06:59:40.412Z,4.20
2018-06-10T07:02:09.308Z,4.23
2018-06-10T07:04:38.244Z,4.17
2018-06-10T07:07:07.112Z,4.10
2018-06-10T07:09:36.056Z,4.03
2018-06-10T07:12:04.918Z,4.47
2018-06-10T07:14:33.842Z,4.00
2018-06-10T07:17:02.828Z,4.13
2018-06-10T07:19:31.728Z,4.13
2018-06-10T07:22:00.656Z,3.87
2018-06-10T07:24:29.619Z,3.73
2018-06-10T07:26:58.584Z,4.10
2018-06-10T07:29:27.550Z,3.70
2018-06-10T07:31:56.516Z,4.50
2018-06-10T07:34:25.482Z,4.30
2018-06-10T07:36:54.348Z,4.00
2018-06-10T07:39:23.300Z,4.13
2018-06-10T07:41:52.198Z,4.00
2018-06-10T07:44:21.127Z,3.83
2018-06-10T07:46:49.979Z,4.00
2018-06-10T07:49:18.948Z,3.97
2018-06-10T07:51:47.797Z,4.17
2018-06-10T07:54:16.763Z,3.97
2018-06-10T07:56:45.798Z,4.17
2018-06-10T07:59:14.697Z,4.30
2018-06-10T08:01:46.009Z,4.63
2018-06-10T08:04:16.192Z,4.23
2018-06-10T08:06:47.312Z,4.27
2018-06-10T08:09:18.772Z,4.27
2018-06-10T08:11:48.771Z,4.17
2018-06-10T08:14:17.701Z,4.40
2018-06-10T08:16:50.702Z,4.83
2018-06-10T08:19:26.341Z,4.40
2018-06-10T08:21:57.652Z,5.17
2018-06-10T08:24:28.453Z,5.40
2018-06-10T08:26:57.392Z,5.20
2018-06-10T08:29:27.212Z,5.20
2018-06-10T08:31:56.123Z,5.27
2018-06-10T08:34:25.005Z,5.50
2018-06-10T08:36:53.917Z,5.03
2018-06-10T08:39:22.748Z,5.40
2018-06-10T08:41:51.195Z,5.67
2018-06-10T08:44:20.064Z,5.50
2018-06-10T08:46:49.077Z,5.78
2018-06-10T08:49:18.615Z,5.28
2018-06-10T08:51:47.513Z,5.80
2018-06-10T08:54:16.428Z,5.90
2018-06-10T08:56:45.308Z,5.28
2018-06-10T08:59:14.220Z,5.70
2018-06-10T09:01:43.097Z,5.67
2018-06-10T09:04:12.039Z,6.60
2018-06-10T09:06:40.527Z,5.47
2018-06-10T09:09:09.288Z,5.60
2018-06-10T09:11:38.352Z,5.95
2018-06-10T09:14:07.513Z,6.80
2018-06-10T09:16:36.437Z,6.12
2018-06-10T09:19:07.227Z,5.87
2018-06-10T09:21:36.144Z,6.53
2018-06-10T09:24:05.051Z,5.75
2018-06-10T09:26:33.960Z,5.90
2018-06-10T09:29:02.790Z,6.20
2018-06-10T09:31:31.688Z,6.03
2018-06-10T09:34:00.525Z,5.85
2018-06-10T09:36:29.483Z,5.37
2018-06-10T09:38:59.584Z,5.55
2018-06-10T09:41:43.003Z,5.60
2018-06-10T09:44:30.533Z,5.62
2018-06-10T09:47:08.932Z,5.40
2018-06-10T09:49:43.780Z,5.83
2018-06-10T09:52:12.659Z,5.00
2018-06-10T09:54:41.079Z,5.60
2018-06-10T09:57:10.080Z,5.10
2018-06-10T09:59:39.020Z,6.33
2018-06-10T10:02:08.454Z,5.58
2018-06-10T10:04:40.180Z,5.85
2018-06-10T10:09:50.705Z,6.10
2018-06-10T10:12:19.670Z,6.17
2018-06-10T10:14:48.502Z,6.55
2018-06-10T10:17:17.016Z,6.00
2018-06-10T10:19:45.969Z,6.72
2018-06-10T10:22:14.873Z,6.83
2018-06-10T10:24:43.739Z,7.65
2018-06-10T10:27:12.720Z,7.42
2018-06-10T10:29:41.624Z,7.03
2018-06-10T10:32:10.588Z,6.70
2018-06-10T10:34:39.417Z,6.43
2018-06-10T10:37:08.330Z,6.40
2018-06-10T10:39:37.240Z,6.40
2018-06-10T10:42:06.085Z,6.70
2018-06-10T10:44:34.969Z,6.33
2018-06-10T10:47:03.915Z,6.07
2018-06-10T10:49:32.797Z,6.03
2018-06-10T10:52:01.653Z,5.77
2018-06-10T10:54:30.558Z,6.40
2018-06-10T10:56:59.468Z,5.63
2018-06-10T10:59:28.329Z,5.47
2018-06-10T11:01:57.225Z,5.85
2018-06-10T11:04:26.141Z,5.97
2018-06-10T11:06:55.048Z,5.42
2018-06-10T11:09:23.960Z,5.25
2018-06-10T11:11:52.906Z,5.35
2018-06-10T11:14:21.781Z,4.83
2018-06-10T11:16:50.300Z,5.33
2018-06-10T11:19:19.188Z,5.12
2018-06-10T11:21:48.017Z,5.40
2018-06-10T11:24:16.920Z,5.17
2018-06-10T11:26:45.984Z,6.17
2018-06-10T11:29:14.929Z,6.95
2018-06-10T11:31:43.771Z,5.20
2018-06-10T11:34:12.778Z,5.72
2018-06-10T11:36:41.719Z,6.05
2018-06-10T11:39:10.661Z,4.97
2018-06-10T11:41:39.516Z,5.42
2018-06-10T11:44:08.510Z,5.90
2018-06-10T11:46:37.414Z,8.68
2018-06-10T11:49:06.289Z,6.08
2018-06-10T11:51:35.109Z,8.05
2018-06-10T11:54:03.996Z,6.58
2018-06-10T11:56:32.958Z,6.40
2018-06-10T11:59:01.825Z,5.67
2018-06-10T12:01:30.785Z,4.95
2018-06-10T12:03:59.260Z,5.62
2018-06-10T12:06:28.244Z,5.45
2018-06-10T12:08:57.195Z,5.17
2018-06-10T12:11:26.021Z,5.58
2018-06-10T12:13:54.968Z,5.47
2018-06-10T12:16:23.826Z,5.17
2018-06-10T12:18:52.748Z,5.40
2018-06-10T12:21:21.671Z,4.80
2018-06-10T12:23:50.596Z,4.80
2018-06-10T12:26:19.472Z,5.00
2018-06-10T12:28:48.356Z,5.10
2018-06-10T12:31:17.201Z,4.67
2018-06-10T12:33:46.164Z,5.00
2018-06-10T12:36:15.007Z,5.10
2018-06-10T12:38:43.881Z,5.25
2018-06-10T12:41:12.860Z,4.78
2018-06-10T12:43:41.728Z,5.87
2018-06-10T12:46:10.661Z,5.30
2018-06-10T12:48:39.586Z,5.37
2018-06-10T12:51:08.575Z,5.00
2018-06-10T12:53:37.467Z,5.00
2018-06-10T12:56:06.367Z,5.03
2018-06-10T12:58:35.252Z,5.25
2018-06-10T13:01:04.203Z,5.60
2018-06-10T13:03:33.080Z,5.65
2018-06-10T13:06:01.956Z,4.72
2018-06-10T13:08:30.463Z,5.08
2018-06-10T13:10:59.440Z,4.90
2018-06-10T13:13:27.908Z,4.60
2018-06-10T13:15:56.792Z,5.10
2018-06-10T13:18:25.685Z,5.08
2018-06-10T13:20:54.537Z,5.65
2018-06-10T13:23:23.476Z,4.90
2018-06-10T13:25:51.925Z,5.25
2018-06-10T13:28:20.799Z,4.70
2018-06-10T13:30:49.692Z,4.60
2018-06-10T13:33:18.526Z,5.20
2018-06-10T13:35:47.036Z,5.12
2018-06-10T13:38:15.912Z,5.20
2018-06-10T13:40:44.870Z,5.67
2018-06-10T13:43:13.848Z,5.30
2018-06-10T13:45:42.814Z,4.65
2018-06-10T13:48:11.801Z,5.17
2018-06-10T13:50:40.730Z,5.10
2018-06-10T13:53:09.613Z,4.92
2018-06-10T13:55:38.518Z,4.85
2018-06-10T13:58:07.417Z,5.28
2018-06-10T14:00:36.436Z,4.90
2018-06-10T14:03:05.331Z,5.22
2018-06-10T14:05:34.185Z,4.80
2018-06-10T14:08:03.085Z,5.22
2018-06-10T14:10:32.168Z,5.25
2018-06-10T14:13:01.126Z,5.00
2018-06-10T14:15:30.058Z,5.03
2018-06-10T14:17:58.923Z,5.53
2018-06-10T14:20:27.768Z,5.40
2018-06-10T14:22:56.725Z,4.92
2018-06-10T14:25:25.741Z,4.78
2018-06-10T14:27:54.615Z,4.85
2018-06-10T14:30:23.560Z,5.00
2018-06-10T14:32:52.417Z,5.12
2018-06-10T14:35:21.388Z,5.12
2018-06-10T14:37:50.256Z,4.95
2018-06-10T14:40:19.249Z,4.85
2018-06-10T14:42:48.166Z,5.08
2018-06-10T14:45:17.177Z,4.80
2018-06-10T14:47:45.713Z,4.85
2018-06-10T14:50:14.607Z,4.97
2018-06-10T14:52:43.501Z,4.78
2018-06-10T14:55:12.551Z,4.92
2018-06-10T14:57:41.564Z,4.90
2018-06-10T15:00:10.482Z,5.05
2018-06-10T15:02:39.376Z,4.62
2018-06-10T15:05:08.282Z,5.37
2018-06-10T15:07:37.247Z,4.95
2018-06-10T15:10:06.188Z,4.50
2018-06-10T15:12:34.623Z,4.75
2018-06-10T15:15:03.510Z,5.17
2018-06-10T15:17:32.360Z,4.75
2018-06-10T15:20:01.314Z,4.90
2018-06-10T15:22:30.192Z,4.95
2018-06-10T15:24:59.075Z,4.67
2018-06-10T15:27:27.919Z,5.15
2018-06-10T15:29:56.372Z,5.15
2018-06-10T15:32:25.324Z,5.30
2018-06-10T15:34:54.241Z,4.92
2018-06-10T15:37:23.218Z,5.20
2018-06-10T15:39:52.094Z,4.95
2018-06-10T15:42:20.977Z,5.47
2018-06-10T15:44:49.792Z,5.20
2018-06-10T15:47:18.680Z,4.92
2018-06-10T15:49:47.492Z,5.40
2018-06-10T15:52:16.378Z,5.55
2018-06-10T15:54:45.198Z,4.90
2018-06-10T15:57:14.060Z,5.50
2018-06-10T15:59:42.927Z,5.47
2018-06-10T16:02:11.904Z,5.67
2018-06-10T16:04:40.895Z,5.00
2018-06-10T16:07:09.808Z,5.42
2018-06-10T16:09:38.696Z,5.60
2018-06-10T16:12:07.597Z,5.85
2018-06-10T16:14:36.069Z,5.67
2018-06-10T16:17:04.975Z,5.85
2018-06-10T16:19:33.887Z,5.45
2018-06-10T16:22:02.816Z,5.78
2018-06-10T16:24:31.649Z,6.17
2018-06-10T16:27:00.560Z,6.83
2018-06-10T16:29:29.108Z,5.70
2018-06-10T16:31:58.145Z,6.45
2018-06-10T16:34:26.765Z,6.30
2018-06-10T16:36:55.921Z,5.83
2018-06-10T16:39:24.903Z,5.87
2018-06-10T16:41:54.585Z,5.70
2018-06-10T16:44:23.760Z,5.60
2018-06-10T16:46:52.837Z,5.50
2018-06-10T16:49:22.797Z,5.58
2018-06-10T16:51:51.717Z,5.45
2018-06-10T16:54:20.245Z,5.28
2018-06-10T16:56:49.164Z,5.57
2018-06-10T16:59:18.362Z,5.47
2018-06-10T17:01:47.322Z,5.13
2018-06-10T17:04:16.236Z,5.33
2018-06-10T17:06:45.276Z,5.10
2018-06-10T17:09:14.131Z,5.10
2018-06-10T17:11:42.964Z,5.07
2018-06-10T17:14:11.415Z,5.27
2018-06-10T17:16:40.236Z,5.10
2018-06-10T17:19:09.121Z,4.90
2018-06-10T17:21:37.992Z,5.93
2018-06-10T17:24:06.893Z,5.60
2018-06-10T17:26:37.630Z,5.47
2018-06-10T17:29:07.844Z,5.73
2018-06-10T17:31:36.397Z,5.03
2018-06-10T17:34:05.326Z,5.13
2018-06-10T17:36:33.792Z,4.93
2018-06-10T17:39:02.761Z,5.05
2018-06-10T17:41:31.635Z,4.42
2018-06-10T17:44:00.525Z,4.83
2018-06-10T17:46:29.347Z,5.08
2018-06-10T17:48:58.292Z,4.47
2018-06-10T17:51:27.177Z,4.37
2018-06-10T17:53:56.180Z,4.58
2018-06-10T17:56:25.108Z,4.45
2018-06-10T17:58:54.004Z,4.87
2018-06-10T18:01:24.132Z,4.53
2018-06-10T18:03:53.092Z,4.70
2018-06-10T18:06:22.085Z,4.50
2018-06-10T18:08:51.054Z,4.42
2018-06-10T18:11:20.001Z,4.65
2018-06-10T18:13:48.920Z,4.20
2018-06-10T18:16:17.836Z,4.50
2018-06-10T18:18:46.875Z,4.40
2018-06-10T18:21:15.883Z,4.50
2018-06-10T18:23:44.727Z,4.20
2018-06-10T18:26:13.768Z,3.98
2018-06-10T18:28:42.712Z,4.20
2018-06-10T18:31:11.790Z,4.47
2018-06-10T18:33:40.781Z,4.37
2018-06-10T18:36:10.265Z,5.13
2018-06-10T18:38:39.116Z,4.60
2018-06-10T18:41:08.101Z,4.80
2018-06-10T18:43:37.008Z,4.77
2018-06-10T18:46:05.897Z,4.70
2018-06-10T18:48:35.373Z,4.23
2018-06-10T18:51:04.272Z,4.43
2018-06-10T18:53:33.263Z,3.87
2018-06-10T18:56:02.165Z,3.70
2018-06-10T18:58:31.044Z,3.40
2018-06-10T19:00:59.927Z,3.53
2018-06-10T19:03:28.864Z,3.27
2018-06-10T19:05:57.712Z,2.90
2018-06-10T19:08:26.626Z,3.60
2018-06-10T19:10:55.540Z,3.20
2018-06-10T19:13:24.448Z,3.50
2018-06-10T19:15:53.259Z,3.30
2018-06-10T19:18:22.209Z,2.90
2018-06-10T19:20:50.722Z,3.27
2018-06-10T19:23:19.609Z,3.10
2018-06-10T19:25:48.553Z,2.80
2018-06-10T19:28:17.482Z,3.43
2018-06-10T19:30:46.612Z,3.10
2018-06-10T19:33:15.644Z,2.97
2018-06-10T19:35:44.272Z,2.97
2018-06-10T19:38:13.359Z,3.40
2018-06-10T19:40:42.489Z,3.67
2018-06-10T19:43:11.847Z,2.90
2018-06-10T19:45:40.832Z,3.60
2018-06-10T19:48:09.296Z,3.60
2018-06-10T19:50:38.219Z,4.00
2018-06-10T19:53:07.153Z,3.70
2018-06-10T19:55:36.348Z,3.50
2018-06-10T19:58:05.365Z,3.60
2018-06-10T20:00:34.310Z,3.67
2018-06-10T20:03:03.215Z,3.40
2018-06-10T20:05:32.174Z,3.30
2018-06-10T20:08:01.073Z,2.80
2018-06-10T20:10:30.112Z,3.60
2018-06-10T20:12:59.256Z,3.50
2018-06-10T20:15:28.226Z,3.53
2018-06-10T20:17:57.356Z,3.20
2018-06-10T20:20:46.741Z,3.60
2018-06-10T20:23:29.013Z,3.37
2018-06-10T20:25:58.200Z,4.10
2018-06-10T20:28:27.322Z,3.87
2018-06-10T20:30:58.658Z,3.50
2018-06-10T20:33:27.628Z,3.40
2018-06-10T20:35:56.502Z,3.87
2018-06-10T20:41:02.106Z,3.77
2018-06-10T20:43:31.004Z,3.70
2018-06-10T20:46:00.556Z,3.40
2018-06-10T20:48:30.138Z,3.43
2018-06-10T20:50:59.736Z,3.53
2018-06-10T20:53:30.744Z,3.33
2018-06-10T20:55:59.692Z,3.70
2018-06-10T20:58:28.696Z,3.70
2018-06-10T21:00:57.610Z,4.00
2018-06-10T21:03:26.132Z,4.10
2018-06-10T21:05:55.041Z,3.90
2018-06-10T21:08:24.025Z,4.23
2018-06-10T21:10:53.652Z,3.87
2018-06-10T21:13:23.425Z,4.00
2018-06-10T21:15:52.606Z,4.17
2018-06-10T21:18:21.633Z,4.00
2018-06-10T21:20:50.530Z,4.10
2018-06-10T21:23:19.383Z,3.67
2018-06-10T21:25:48.280Z,3.93
2018-06-10T21:28:17.176Z,3.93
2018-06-10T21:30:46.080Z,3.90
2018-06-10T21:33:14.968Z,4.10
2018-06-10T21:35:43.920Z,4.00
2018-06-10T21:38:12.829Z,4.30
2018-06-10T21:40:41.748Z,4.00
2018-06-10T21:43:10.746Z,4.07
2018-06-10T21:45:39.601Z,4.23
2018-06-10T21:48:08.496Z,4.23
2018-06-10T21:50:37.405Z,4.07
2018-06-10T21:53:07.445Z,3.57
2018-06-10T21:55:36.292Z,3.90
2018-06-10T21:58:05.200Z,4.10
2018-06-10T22:00:34.086Z,3.80
2018-06-10T22:03:03.137Z,3.87
2018-06-10T22:05:32.039Z,4.17
2018-06-10T22:08:00.920Z,4.00
2018-06-10T22:10:30.849Z,3.83
2018-06-10T22:13:00.120Z,4.40
2018-06-10T22:15:29.060Z,3.90
2018-06-10T22:17:57.980Z,4.27
2018-06-10T22:20:26.498Z,3.90
2018-06-10T22:22:55.406Z,4.10
2018-06-10T22:25:24.224Z,4.50
2018-06-10T22:27:53.108Z,4.67
2018-06-10T22:30:21.980Z,4.73
2018-06-10T22:32:50.836Z,4.30
2018-06-10T22:35:19.660Z,3.60
2018-06-10T22:37:48.551Z,3.97
2018-06-10T22:40:17.461Z,3.80
2018-06-10T22:42:46.281Z,3.90
2018-06-10T22:45:15.135Z,3.73
2018-06-10T22:47:43.559Z,4.17
2018-06-10T22:50:12.440Z,3.77
2018-06-10T22:52:41.360Z,3.60
2018-06-10T22:55:10.252Z,3.97
2018-06-10T22:57:39.132Z,4.17
2018-06-10T23:00:08.169Z,3.70
2018-06-10T23:02:36.671Z,4.13
2018-06-10T23:05:05.524Z,3.80
2018-06-10T23:07:34.003Z,4.07
2018-06-10T23:10:02.459Z,3.80
2018-06-10T23:12:31.435Z,4.23
2018-06-10T23:15:00.368Z,4.53
2018-06-10T23:17:30.100Z,5.03
2018-06-10T23:19:58.963Z,4.93
2018-06-10T23:22:27.404Z,5.47
2018-06-10T23:24:56.312Z,5.87
2018-06-10T23:27:25.412Z,5.67
2018-06-10T23:29:54.304Z,5.07
2018-06-10T23:32:23.180Z,5.00
2018-06-10T23:34:52.080Z,5.30
2018-06-10T23:37:20.982Z,5.00
2018-06-10T23:39:49.824Z,5.03
2018-06-10T23:42:18.712Z,4.23
2018-06-10T23:44:47.592Z,4.30
2018-06-10T23:47:16.457Z,3.97
2018-06-10T23:49:45.373Z,4.10
2018-06-10T23:52:14.244Z,4.67
2018-06-10T23:54:43.112Z,4.30
2018-06-10T23:57:11.992Z,4.37
2018-06-10T23:59:40.423Z,4.60
